createdAt,value
2019-03-25T00:00:49.625Z,1013.02
2019-03-25T00:01:49.646Z,1013.03
2019-03-25T00:02:49.570Z,1012.96
2019-03-25T00:03:49.568Z,1012.97
2019-03-25T00:04:49.580Z,1012.98
2019-03-25T00:05:49.631Z,1012.96
2019-03-25T00:06:49.585Z,1012.95
2019-03-25T00:07:49.637Z,1012.91
2019-03-25T00:09:03.224Z,1012.92
2019-03-25T00:09:49.599Z,1012.89
2019-03-25T00:10:49.721Z,1012.90
2019-03-25T00:11:49.617Z,1012.86
2019-03-25T00:12:49.622Z,1012.88
2019-03-25T00:13:49.624Z,1012.88
2019-03-25T00:14:49.624Z,1012.89
2019-03-25T00:15:49.699Z,1012.88
2019-03-25T00:16:49.666Z,1012.89
2019-03-25T00:17:49.631Z,1012.88
2019-03-25T00:18:49.663Z,1012.84
2019-03-25T00:19:49.675Z,1012.85
2019-03-25T00:20:49.671Z,1012.81
2019-03-25T00:21:49.691Z,1012.77
2019-03-25T00:22:49.689Z,1012.78
2019-03-25T00:23:49.674Z,1012.77
2019-03-25T00:24:49.671Z,1012.74
2019-03-25T00:25:49.685Z,1012.74
2019-03-25T00:26:49.690Z,1012.72
2019-03-25T00:27:49.701Z,1012.70
2019-03-25T00:28:49.715Z,1012.73
2019-03-25T00:29:49.727Z,1012.72
2019-03-25T00:30:49.772Z,1012.69
2019-03-25T00:31:49.705Z,1012.67
2019-03-25T00:32:49.758Z,1012.70
2019-03-25T00:33:49.708Z,1012.66
2019-03-25T00:34:49.720Z,1012.64
2019-03-25T00:35:49.730Z,1012.62
2019-03-25T00:36:49.745Z,1012.64
2019-03-25T00:37:49.724Z,1012.61
2019-03-25T00:38:49.764Z,1012.58
2019-03-25T00:39:49.745Z,1012.57
2019-03-25T00:40:49.787Z,1012.59
2019-03-25T00:41:49.758Z,1012.56
2019-03-25T00:42:49.773Z,1012.58
2019-03-25T00:43:49.818Z,1012.55
2019-03-25T00:44:49.772Z,1012.55
2019-03-25T00:45:49.799Z,1012.53
2019-03-25T00:46:49.808Z,1012.52
2019-03-25T00:47:49.838Z,1012.50
2019-03-25T00:48:49.783Z,1012.50
2019-03-25T00:49:49.835Z,1012.49
2019-03-25T00:50:49.800Z,1012.39
2019-03-25T00:51:49.807Z,1012.37
2019-03-25T00:52:49.807Z,1012.33
2019-03-25T00:53:49.852Z,1012.32
2019-03-25T00:54:50.398Z,1012.32
2019-03-25T00:55:49.818Z,1012.28
2019-03-25T00:56:49.833Z,1012.22
2019-03-25T00:57:49.899Z,1012.18
2019-03-25T00:58:49.840Z,1012.19
2019-03-25T00:59:49.860Z,1012.16
2019-03-25T01:00:49.849Z,1012.13
2019-03-25T01:01:49.858Z,1012.11
2019-03-25T01:02:49.845Z,1012.08
2019-03-25T01:03:49.896Z,1012.07
2019-03-25T01:04:49.883Z,1012.07
2019-03-25T01:05:49.871Z,1012.06
2019-03-25T01:06:49.873Z,1012.07
2019-03-25T01:07:49.904Z,1012.03
2019-03-25T01:08:49.873Z,1012.01
2019-03-25T01:09:49.898Z,1012.02
2019-03-25T01:10:49.888Z,1011.93
2019-03-25T01:11:49.880Z,1011.93
2019-03-25T01:12:49.893Z,1011.87
2019-03-25T01:13:49.905Z,1011.86
2019-03-25T01:14:49.932Z,1011.74
2019-03-25T01:15:49.939Z,1011.75
2019-03-25T01:16:49.932Z,1011.71
2019-03-25T01:17:49.909Z,1011.71
2019-03-25T01:18:49.939Z,1011.68
2019-03-25T01:19:49.944Z,1011.68
2019-03-25T01:20:49.950Z,1011.69
2019-03-25T01:21:49.936Z,1011.65
2019-03-25T01:22:49.963Z,1011.64
2019-03-25T01:23:49.936Z,1011.62
2019-03-25T01:25:00.932Z,1011.68
2019-03-25T01:25:49.963Z,1011.62
2019-03-25T01:26:49.965Z,1011.55
2019-03-25T01:27:49.991Z,1011.56
2019-03-25T01:28:49.997Z,1011.51
2019-03-25T01:29:49.968Z,1011.47
2019-03-25T01:30:49.966Z,1011.43
2019-03-25T01:31:50.035Z,1011.43
2019-03-25T01:32:49.982Z,1011.40
2019-03-25T01:33:49.980Z,1011.43
2019-03-25T01:34:50.034Z,1011.39
2019-03-25T01:35:50.001Z,1011.40
2019-03-25T01:36:50.051Z,1011.35
2019-03-25T01:37:50.060Z,1011.35
2019-03-25T01:38:50.009Z,1011.36
2019-03-25T01:39:50.034Z,1011.32
2019-03-25T01:40:50.052Z,1011.28
2019-03-25T01:41:50.054Z,1011.32
2019-03-25T01:42:50.030Z,1011.30
2019-03-25T01:43:50.048Z,1011.32
2019-03-25T01:44:50.040Z,1011.26
2019-03-25T01:45:50.061Z,1011.23
2019-03-25T01:46:50.046Z,1011.19
2019-03-25T01:47:50.073Z,1011.20
2019-03-25T01:48:50.058Z,1011.17
2019-03-25T01:49:50.101Z,1011.14
2019-03-25T01:50:50.073Z,1011.13
2019-03-25T01:51:50.065Z,1011.11
2019-03-25T01:52:50.113Z,1011.06
2019-03-25T01:53:50.069Z,1011.01
2019-03-25T01:54:50.090Z,1010.99
2019-03-25T01:55:50.082Z,1011.00
2019-03-25T01:56:50.137Z,1011.00
2019-03-25T01:57:50.134Z,1011.00
2019-03-25T01:58:50.136Z,1010.94
2019-03-25T01:59:50.109Z,1010.99
2019-03-25T02:00:50.120Z,1010.95
2019-03-25T02:01:50.132Z,1010.91
2019-03-25T02:02:50.107Z,1010.90
2019-03-25T02:03:50.127Z,1010.85
2019-03-25T02:04:50.273Z,1010.84
2019-03-25T02:05:50.148Z,1010.82
2019-03-25T02:06:50.137Z,1010.81
2019-03-25T02:07:50.138Z,1010.80
2019-03-25T02:08:50.164Z,1010.78
2019-03-25T02:09:50.172Z,1010.77
2019-03-25T02:10:50.191Z,1010.77
2019-03-25T02:11:50.153Z,1010.79
2019-03-25T02:12:50.178Z,1010.77
2019-03-25T02:13:50.183Z,1010.74
2019-03-25T02:14:50.182Z,1010.78
2019-03-25T02:15:50.167Z,1010.71
2019-03-25T02:16:50.169Z,1010.67
2019-03-25T02:17:50.196Z,1010.65
2019-03-25T02:18:50.178Z,1010.61
2019-03-25T02:19:50.252Z,1010.59
2019-03-25T02:20:50.199Z,1010.64
2019-03-25T02:21:50.204Z,1010.58
2019-03-25T02:22:50.405Z,1010.57
2019-03-25T02:23:50.216Z,1010.53
2019-03-25T02:24:50.256Z,1010.54
2019-03-25T02:25:50.232Z,1010.52
2019-03-25T02:26:50.322Z,1010.52
2019-03-25T02:27:50.227Z,1010.51
2019-03-25T02:28:50.227Z,1010.50
2019-03-25T02:29:50.236Z,1010.49
2019-03-25T02:30:50.246Z,1010.43
2019-03-25T02:31:50.251Z,1010.41
2019-03-25T02:32:50.348Z,1010.39
2019-03-25T02:33:50.295Z,1010.39
2019-03-25T02:34:50.291Z,1010.35
2019-03-25T02:35:50.261Z,1010.35
2019-03-25T02:36:50.316Z,1010.32
2019-03-25T02:37:50.314Z,1010.36
2019-03-25T02:38:50.283Z,1010.33
2019-03-25T02:39:50.283Z,1010.30
2019-03-25T02:40:50.298Z,1010.30
2019-03-25T02:41:50.287Z,1010.29
2019-03-25T02:42:50.307Z,1010.30
2019-03-25T02:43:50.320Z,1010.29
2019-03-25T02:44:50.322Z,1010.24
2019-03-25T02:45:50.308Z,1010.23
2019-03-25T02:46:50.341Z,1010.21
2019-03-25T02:47:50.327Z,1010.26
2019-03-25T02:48:50.335Z,1010.23
2019-03-25T02:49:50.380Z,1010.22
2019-03-25T02:50:50.331Z,1010.18
2019-03-25T02:51:50.375Z,1010.20
2019-03-25T02:52:50.346Z,1010.19
2019-03-25T02:53:50.369Z,1010.15
2019-03-25T02:54:50.419Z,1010.13
2019-03-25T02:55:50.362Z,1010.14
2019-03-25T02:56:50.360Z,1010.08
2019-03-25T02:57:50.352Z,1010.04
2019-03-25T02:58:50.416Z,1010.04
2019-03-25T02:59:50.363Z,1010.00
2019-03-25T03:00:50.370Z,1009.94
2019-03-25T03:01:50.413Z,1009.94
2019-03-25T03:02:50.383Z,1009.93
2019-03-25T03:03:50.383Z,1009.90
2019-03-25T03:04:50.423Z,1009.89
2019-03-25T03:05:50.388Z,1009.89
2019-03-25T03:06:50.398Z,1009.88
2019-03-25T03:07:50.421Z,1009.85
2019-03-25T03:08:50.419Z,1009.88
2019-03-25T03:09:50.432Z,1009.83
2019-03-25T03:10:50.443Z,1009.80
2019-03-25T03:11:50.422Z,1009.77
2019-03-25T03:12:50.415Z,1009.77
2019-03-25T03:13:50.448Z,1009.76
2019-03-25T03:14:50.424Z,1009.73
2019-03-25T03:15:50.459Z,1009.75
2019-03-25T03:16:50.435Z,1009.71
2019-03-25T03:17:50.438Z,1009.72
2019-03-25T03:18:50.454Z,1009.69
2019-03-25T03:19:50.462Z,1009.67
2019-03-25T03:20:50.493Z,1009.69
2019-03-25T03:21:50.474Z,1009.63
2019-03-25T03:22:50.487Z,1009.63
2019-03-25T03:23:50.472Z,1009.61
2019-03-25T03:24:50.467Z,1009.60
2019-03-25T03:25:56.922Z,1009.61
2019-03-25T03:26:50.553Z,1009.55
2019-03-25T03:27:50.490Z,1009.54
2019-03-25T03:28:50.493Z,1009.44
2019-03-25T03:29:50.499Z,1009.43
2019-03-25T03:30:50.503Z,1009.46
2019-03-25T03:31:50.521Z,1009.44
2019-03-25T03:32:50.543Z,1009.43
2019-03-25T03:33:50.525Z,1009.38
2019-03-25T03:34:50.543Z,1009.40
2019-03-25T03:35:50.506Z,1009.33
2019-03-25T03:36:50.551Z,1009.36
2019-03-25T03:37:50.573Z,1009.35
2019-03-25T03:38:50.521Z,1009.32
2019-03-25T03:39:50.529Z,1009.29
2019-03-25T03:40:50.556Z,1009.28
2019-03-25T03:41:50.537Z,1009.25
2019-03-25T03:42:50.551Z,1009.24
2019-03-25T03:43:50.579Z,1009.28
2019-03-25T03:44:50.563Z,1009.23
2019-03-25T03:45:50.555Z,1009.21
2019-03-25T03:46:50.574Z,1009.18
2019-03-25T03:47:50.621Z,1009.22
2019-03-25T03:48:50.583Z,1009.20
2019-03-25T03:49:50.601Z,1009.18
2019-03-25T03:50:50.576Z,1009.15
2019-03-25T03:51:50.605Z,1009.11
2019-03-25T03:52:50.616Z,1009.11
2019-03-25T03:53:50.642Z,1009.10
2019-03-25T03:54:50.619Z,1009.12
2019-03-25T03:55:50.595Z,1009.10
2019-03-25T03:56:50.617Z,1009.11
2019-03-25T03:57:50.604Z,1009.06
2019-03-25T03:58:50.615Z,1009.07
2019-03-25T03:59:50.671Z,1009.00
2019-03-25T04:00:50.641Z,1009.01
2019-03-25T04:01:50.656Z,1009.00
2019-03-25T04:02:50.623Z,1008.97
2019-03-25T04:03:50.651Z,1009.02
2019-03-25T04:04:50.653Z,1008.99
2019-03-25T04:05:50.658Z,1008.95
2019-03-25T04:06:50.661Z,1008.89
2019-03-25T04:07:50.667Z,1008.92
2019-03-25T04:08:50.673Z,1008.91
2019-03-25T04:09:50.703Z,1008.90
2019-03-25T04:10:50.661Z,1008.85
2019-03-25T04:11:50.664Z,1008.87
2019-03-25T04:12:50.681Z,1008.84
2019-03-25T04:13:50.692Z,1008.76
2019-03-25T04:14:50.707Z,1008.78
2019-03-25T04:15:50.682Z,1008.77
2019-03-25T04:16:50.700Z,1008.78
2019-03-25T04:17:50.690Z,1008.80
2019-03-25T04:18:50.699Z,1008.73
2019-03-25T04:19:50.763Z,1008.70
2019-03-25T04:20:50.710Z,1008.67
2019-03-25T04:21:50.698Z,1008.66
2019-03-25T04:22:50.724Z,1008.63
2019-03-25T04:23:50.720Z,1008.63
2019-03-25T04:24:50.740Z,1008.54
2019-03-25T04:25:50.749Z,1008.54
2019-03-25T04:26:50.733Z,1008.52
2019-03-25T04:27:50.729Z,1008.55
2019-03-25T04:28:50.746Z,1008.47
2019-03-25T04:29:50.769Z,1008.47
2019-03-25T04:30:50.754Z,1008.40
2019-03-25T04:31:50.794Z,1008.38
2019-03-25T04:32:50.751Z,1008.33
2019-03-25T04:33:50.774Z,1008.33
2019-03-25T04:34:50.771Z,1008.30
2019-03-25T04:35:50.763Z,1008.31
2019-03-25T04:36:50.812Z,1008.28
2019-03-25T04:37:50.799Z,1008.27
2019-03-25T04:38:50.776Z,1008.26
2019-03-25T04:39:50.777Z,1008.30
2019-03-25T04:40:50.848Z,1008.30
2019-03-25T04:41:50.789Z,1008.26
2019-03-25T04:42:50.784Z,1008.28
2019-03-25T04:43:50.801Z,1008.28
2019-03-25T04:44:50.805Z,1008.26
2019-03-25T04:45:50.810Z,1008.16
2019-03-25T04:46:50.834Z,1008.15
2019-03-25T04:47:50.830Z,1008.16
2019-03-25T04:48:50.813Z,1008.13
2019-03-25T04:49:50.841Z,1008.14
2019-03-25T04:50:50.824Z,1008.15
2019-03-25T04:51:50.861Z,1008.13
2019-03-25T04:52:50.821Z,1008.11
2019-03-25T04:53:50.865Z,1008.07
2019-03-25T04:54:50.841Z,1008.02
2019-03-25T04:55:50.835Z,1008.04
2019-03-25T04:56:50.856Z,1008.04
2019-03-25T04:57:50.852Z,1008.13
2019-03-25T04:58:50.848Z,1008.14
2019-03-25T04:59:50.877Z,1008.09
2019-03-25T05:00:50.863Z,1008.00
2019-03-25T05:01:50.890Z,1008.02
2019-03-25T05:02:50.893Z,1007.98
2019-03-25T05:03:50.887Z,1007.98
2019-03-25T05:04:50.944Z,1007.91
2019-03-25T05:05:50.898Z,1007.95
2019-03-25T05:06:50.881Z,1007.92
2019-03-25T05:07:50.908Z,1007.88
2019-03-25T05:08:50.989Z,1007.88
2019-03-25T05:09:50.889Z,1007.88
2019-03-25T05:10:51.037Z,1007.84
2019-03-25T05:11:50.912Z,1007.85
2019-03-25T05:12:50.904Z,1007.85
2019-03-25T05:13:50.914Z,1007.79
2019-03-25T05:14:51.015Z,1007.80
2019-03-25T05:15:50.951Z,1007.78
2019-03-25T05:16:50.957Z,1007.69
2019-03-25T05:17:50.925Z,1007.71
2019-03-25T05:18:50.948Z,1007.67
2019-03-25T05:19:50.993Z,1007.64
2019-03-25T05:20:50.964Z,1007.62
2019-03-25T05:21:50.974Z,1007.66
2019-03-25T05:22:51.037Z,1007.63
2019-03-25T05:23:50.970Z,1007.63
2019-03-25T05:24:51.003Z,1007.62
2019-03-25T05:25:50.956Z,1007.60
2019-03-25T05:26:51.528Z,1007.60
2019-03-25T05:27:50.963Z,1007.59
2019-03-25T05:28:51.315Z,1007.57
2019-03-25T05:29:50.998Z,1007.60
2019-03-25T05:30:51.019Z,1007.57
2019-03-25T05:31:50.979Z,1007.58
2019-03-25T05:32:51.031Z,1007.57
2019-03-25T05:33:51.039Z,1007.56
2019-03-25T05:34:51.034Z,1007.55
2019-03-25T05:35:51.046Z,1007.49
2019-03-25T05:36:51.057Z,1007.44
2019-03-25T05:37:51.056Z,1007.49
2019-03-25T05:38:51.009Z,1007.48
2019-03-25T05:39:51.067Z,1007.47
2019-03-25T05:40:51.058Z,1007.44
2019-03-25T05:41:51.024Z,1007.46
2019-03-25T05:42:51.033Z,1007.46
2019-03-25T05:43:51.050Z,1007.43
2019-03-25T05:44:51.086Z,1007.45
2019-03-25T05:45:51.089Z,1007.38
2019-03-25T05:46:51.048Z,1007.38
2019-03-25T05:47:51.080Z,1007.43
2019-03-25T05:48:51.087Z,1007.44
2019-03-25T05:49:51.063Z,1007.40
2019-03-25T05:50:51.085Z,1007.33
2019-03-25T05:51:51.066Z,1007.36
2019-03-25T05:52:51.090Z,1007.41
2019-03-25T05:53:51.120Z,1007.40
2019-03-25T05:54:51.109Z,1007.35
2019-03-25T05:55:51.093Z,1007.36
2019-03-25T05:57:01.749Z,1007.44
2019-03-25T05:57:51.112Z,1007.44
2019-03-25T05:58:51.126Z,1007.50
2019-03-25T05:59:51.117Z,1007.47
2019-03-25T06:00:51.126Z,1007.42
2019-03-25T06:01:51.116Z,1007.41
2019-03-25T06:02:51.145Z,1007.46
2019-03-25T06:03:51.162Z,1007.46
2019-03-25T06:04:51.134Z,1007.42
2019-03-25T06:05:51.136Z,1007.45
2019-03-25T06:06:52.222Z,1007.42
2019-03-25T06:07:51.151Z,1007.43
2019-03-25T06:08:51.162Z,1007.40
2019-03-25T06:09:51.164Z,1007.39
2019-03-25T06:10:51.143Z,1007.37
2019-03-25T06:11:51.162Z,1007.30
2019-03-25T06:12:51.185Z,1007.30
2019-03-25T06:13:51.196Z,1007.37
2019-03-25T06:14:51.199Z,1007.30
2019-03-25T06:15:51.222Z,1007.30
2019-03-25T06:16:51.188Z,1007.33
2019-03-25T06:17:51.185Z,1007.28
2019-03-25T06:18:51.261Z,1007.27
2019-03-25T06:19:51.199Z,1007.23
2019-03-25T06:20:51.201Z,1007.31
2019-03-25T06:21:51.191Z,1007.25
2019-03-25T06:22:51.217Z,1007.25
2019-03-25T06:23:51.221Z,1007.21
2019-03-25T06:24:51.210Z,1007.26
2019-03-25T06:25:51.263Z,1007.25
2019-03-25T06:26:51.224Z,1007.29
2019-03-25T06:27:51.210Z,1007.22
2019-03-25T06:28:51.259Z,1007.27
2019-03-25T06:29:51.249Z,1007.27
2019-03-25T06:30:51.274Z,1007.30
2019-03-25T06:31:51.288Z,1007.30
2019-03-25T06:32:51.248Z,1007.27
2019-03-25T06:33:51.308Z,1007.34
2019-03-25T06:34:51.258Z,1007.34
2019-03-25T06:35:51.260Z,1007.34
2019-03-25T06:36:51.266Z,1007.36
2019-03-25T06:37:51.293Z,1007.36
2019-03-25T06:38:51.315Z,1007.32
2019-03-25T06:39:51.266Z,1007.40
2019-03-25T06:40:51.323Z,1007.39
2019-03-25T06:41:51.326Z,1007.36
2019-03-25T06:42:51.288Z,1007.49
2019-03-25T06:43:51.334Z,1007.44
2019-03-25T06:44:51.286Z,1007.40
2019-03-25T06:45:51.346Z,1007.43
2019-03-25T06:46:51.313Z,1007.39
2019-03-25T06:47:51.343Z,1007.44
2019-03-25T06:48:51.307Z,1007.46
2019-03-25T06:49:51.315Z,1007.42
2019-03-25T06:50:51.354Z,1007.46
2019-03-25T06:51:51.313Z,1007.47
2019-03-25T06:52:51.378Z,1007.45
2019-03-25T06:53:51.348Z,1007.46
2019-03-25T06:54:51.332Z,1007.48
2019-03-25T06:55:51.345Z,1007.49
2019-03-25T06:56:51.346Z,1007.49
2019-03-25T06:57:51.414Z,1007.52
2019-03-25T06:58:51.362Z,1007.51
2019-03-25T06:59:51.361Z,1007.46
2019-03-25T07:00:51.363Z,1007.46
2019-03-25T07:01:51.411Z,1007.53
2019-03-25T07:02:51.370Z,1007.54
2019-03-25T07:03:51.398Z,1007.55
2019-03-25T07:04:51.375Z,1007.56
2019-03-25T07:05:51.371Z,1007.56
2019-03-25T07:06:51.368Z,1007.56
2019-03-25T07:07:51.389Z,1007.57
2019-03-25T07:08:51.433Z,1007.58
2019-03-25T07:09:51.402Z,1007.49
2019-03-25T07:10:51.398Z,1007.55
2019-03-25T07:11:51.414Z,1007.58
2019-03-25T07:12:51.401Z,1007.54
2019-03-25T07:13:51.411Z,1007.55
2019-03-25T07:14:51.451Z,1007.59
2019-03-25T07:15:51.465Z,1007.48
2019-03-25T07:16:51.441Z,1007.55
2019-03-25T07:17:51.484Z,1007.58
2019-03-25T07:18:51.441Z,1007.53
2019-03-25T07:19:51.421Z,1007.57
2019-03-25T07:20:51.452Z,1007.56
2019-03-25T07:21:51.443Z,1007.54
2019-03-25T07:22:51.467Z,1007.59
2019-03-25T07:23:51.500Z,1007.62
2019-03-25T07:24:51.443Z,1007.58
2019-03-25T07:25:51.508Z,1007.58
2019-03-25T07:26:51.523Z,1007.58
2019-03-25T07:27:51.467Z,1007.60
2019-03-25T07:28:51.462Z,1007.59
2019-03-25T07:29:51.493Z,1007.56
2019-03-25T07:30:51.580Z,1007.59
2019-03-25T07:31:51.508Z,1007.56
2019-03-25T07:32:51.488Z,1007.57
2019-03-25T07:33:51.485Z,1007.55
2019-03-25T07:34:51.508Z,1007.59
2019-03-25T07:35:51.524Z,1007.54
2019-03-25T07:36:51.851Z,1007.57
2019-03-25T07:37:51.536Z,1007.62
2019-03-25T07:38:51.492Z,1007.59
2019-03-25T07:39:51.509Z,1007.58
2019-03-25T07:40:51.544Z,1007.62
2019-03-25T07:41:51.567Z,1007.66
2019-03-25T07:42:51.565Z,1007.61
2019-03-25T07:43:51.528Z,1007.65
2019-03-25T07:44:51.529Z,1007.67
2019-03-25T07:45:51.551Z,1007.63
2019-03-25T07:46:51.585Z,1007.66
2019-03-25T07:47:51.633Z,1007.60
2019-03-25T07:48:51.544Z,1007.62
2019-03-25T07:49:51.546Z,1007.56
2019-03-25T07:50:51.548Z,1007.65
2019-03-25T07:51:51.549Z,1007.61
2019-03-25T07:52:51.622Z,1007.62
2019-03-25T07:53:51.573Z,1007.63
2019-03-25T07:54:51.584Z,1007.65
2019-03-25T07:55:51.581Z,1007.60
2019-03-25T07:56:51.612Z,1007.63
2019-03-25T07:57:51.601Z,1007.65
2019-03-25T07:58:51.646Z,1007.62
2019-03-25T07:59:51.621Z,1007.65
2019-03-25T08:00:51.621Z,1007.70
2019-03-25T08:01:51.606Z,1007.71
2019-03-25T08:02:51.626Z,1007.74
2019-03-25T08:03:51.635Z,1007.74
2019-03-25T08:04:51.636Z,1007.81
2019-03-25T08:05:51.725Z,1007.84
2019-03-25T08:06:51.636Z,1007.82
2019-03-25T08:07:51.653Z,1007.78
2019-03-25T08:08:51.661Z,1007.85
2019-03-25T08:09:52.499Z,1007.77
2019-03-25T08:10:51.645Z,1007.84
2019-03-25T08:11:51.639Z,1007.86
2019-03-25T08:12:51.694Z,1007.84
2019-03-25T08:13:51.641Z,1007.86
2019-03-25T08:14:51.700Z,1007.84
2019-03-25T08:15:51.662Z,1007.79
2019-03-25T08:16:51.660Z,1007.80
2019-03-25T08:17:51.715Z,1007.86
2019-03-25T08:18:51.675Z,1007.79
2019-03-25T08:19:51.739Z,1007.80
2019-03-25T08:20:51.702Z,1007.84
2019-03-25T08:21:51.692Z,1007.84
2019-03-25T08:22:51.713Z,1007.86
2019-03-25T08:23:51.719Z,1007.86
2019-03-25T08:24:51.724Z,1007.83
2019-03-25T08:25:51.724Z,1007.83
2019-03-25T08:26:51.759Z,1007.82
2019-03-25T08:27:59.906Z,1007.80
2019-03-25T08:28:51.737Z,1007.79
2019-03-25T08:29:51.800Z,1007.83
2019-03-25T08:30:51.767Z,1007.87
2019-03-25T08:31:51.723Z,1007.81
2019-03-25T08:32:51.746Z,1007.86
2019-03-25T08:33:51.738Z,1007.93
2019-03-25T08:34:51.763Z,1007.91
2019-03-25T08:35:51.791Z,1007.91
2019-03-25T08:36:51.768Z,1007.89
2019-03-25T08:37:51.751Z,1007.93
2019-03-25T08:38:51.757Z,1008.00
2019-03-25T08:39:51.790Z,1007.99
2019-03-25T08:40:51.839Z,1008.01
2019-03-25T08:41:51.781Z,1008.01
2019-03-25T08:42:51.780Z,1008.01
2019-03-25T08:43:51.789Z,1008.00
2019-03-25T08:44:51.818Z,1008.06
2019-03-25T08:45:51.798Z,1008.04
2019-03-25T08:46:51.818Z,1008.10
2019-03-25T08:47:51.827Z,1008.07
2019-03-25T08:48:51.806Z,1008.09
2019-03-25T08:49:51.814Z,1008.07
2019-03-25T08:50:51.827Z,1008.04
2019-03-25T08:51:51.901Z,1008.09
2019-03-25T08:52:51.846Z,1008.06
2019-03-25T08:53:51.869Z,1008.11
2019-03-25T08:54:51.857Z,1008.15
2019-03-25T08:55:51.853Z,1008.13
2019-03-25T08:56:51.881Z,1008.15
2019-03-25T08:57:51.866Z,1008.15
2019-03-25T08:58:51.890Z,1008.21
2019-03-25T08:59:51.857Z,1008.20
2019-03-25T09:00:51.866Z,1008.27
2019-03-25T09:01:51.869Z,1008.28
2019-03-25T09:02:51.912Z,1008.34
2019-03-25T09:03:51.879Z,1008.26
2019-03-25T09:04:51.881Z,1008.17
2019-03-25T09:05:51.980Z,1008.29
2019-03-25T09:06:51.964Z,1008.33
2019-03-25T09:07:51.913Z,1008.30
2019-03-25T09:08:51.916Z,1008.34
2019-03-25T09:09:51.911Z,1008.28
2019-03-25T09:10:51.981Z,1008.24
2019-03-25T09:11:51.980Z,1008.30
2019-03-25T09:12:52.003Z,1008.31
2019-03-25T09:13:51.964Z,1008.33
2019-03-25T09:14:51.939Z,1008.31
2019-03-25T09:15:51.950Z,1008.34
2019-03-25T09:16:52.005Z,1008.27
2019-03-25T09:17:51.970Z,1008.32
2019-03-25T09:18:52.037Z,1008.28
2019-03-25T09:19:51.983Z,1008.29
2019-03-25T09:20:51.996Z,1008.30
2019-03-25T09:21:51.982Z,1008.34
2019-03-25T09:22:52.007Z,1008.35
2019-03-25T09:23:52.044Z,1008.41
2019-03-25T09:24:52.006Z,1008.36
2019-03-25T09:25:52.017Z,1008.35
2019-03-25T09:26:52.014Z,1008.39
2019-03-25T09:27:52.085Z,1008.43
2019-03-25T09:28:52.046Z,1008.48
2019-03-25T09:29:52.040Z,1008.47
2019-03-25T09:30:52.054Z,1008.52
2019-03-25T09:31:52.040Z,1008.48
2019-03-25T09:32:52.056Z,1008.47
2019-03-25T09:33:52.063Z,1008.46
2019-03-25T09:34:52.080Z,1008.38
2019-03-25T09:35:52.176Z,1008.44
2019-03-25T09:36:52.046Z,1008.46
2019-03-25T09:37:52.799Z,1008.43
2019-03-25T09:38:52.190Z,1008.46
2019-03-25T09:39:52.080Z,1008.46
2019-03-25T09:40:52.083Z,1008.46
2019-03-25T09:41:52.116Z,1008.51
2019-03-25T09:42:52.086Z,1008.55
2019-03-25T09:43:52.101Z,1008.61
2019-03-25T09:44:52.151Z,1008.57
2019-03-25T09:45:52.104Z,1008.70
2019-03-25T09:46:52.106Z,1008.57
2019-03-25T09:47:52.170Z,1008.65
2019-03-25T09:48:52.136Z,1008.71
2019-03-25T09:49:52.134Z,1008.76
2019-03-25T09:50:52.114Z,1008.73
2019-03-25T09:51:52.981Z,1008.69
2019-03-25T09:52:52.167Z,1008.78
2019-03-25T09:53:52.159Z,1008.69
2019-03-25T09:54:52.145Z,1008.70
2019-03-25T09:55:52.267Z,1008.68
2019-03-25T09:56:52.185Z,1008.68
2019-03-25T09:57:52.194Z,1008.66
2019-03-25T09:58:52.197Z,1008.69
2019-03-25T09:59:52.193Z,1008.71
2019-03-25T10:00:52.349Z,1008.67
2019-03-25T10:01:52.262Z,1008.67
2019-03-25T10:02:52.217Z,1008.63
2019-03-25T10:03:52.182Z,1008.72
2019-03-25T10:04:52.190Z,1008.69
2019-03-25T10:05:52.234Z,1008.72
2019-03-25T10:06:52.241Z,1008.67
2019-03-25T10:07:52.211Z,1008.70
2019-03-25T10:08:52.375Z,1008.75
2019-03-25T10:09:52.231Z,1008.72
2019-03-25T10:10:52.227Z,1008.74
2019-03-25T10:11:52.255Z,1008.77
2019-03-25T10:12:52.237Z,1008.71
2019-03-25T10:13:52.247Z,1008.76
2019-03-25T10:14:52.258Z,1008.67
2019-03-25T10:15:52.272Z,1008.75
2019-03-25T10:16:52.320Z,1008.77
2019-03-25T10:17:52.278Z,1008.81
2019-03-25T10:18:52.293Z,1008.85
2019-03-25T10:19:52.287Z,1008.88
2019-03-25T10:20:52.288Z,1008.85
2019-03-25T10:21:52.353Z,1008.86
2019-03-25T10:22:52.316Z,1008.94
2019-03-25T10:23:52.331Z,1008.94
2019-03-25T10:24:52.344Z,1008.93
2019-03-25T10:25:52.308Z,1008.95
2019-03-25T10:26:52.339Z,1008.93
2019-03-25T10:27:52.422Z,1008.99
2019-03-25T10:28:52.395Z,1009.01
2019-03-25T10:29:52.359Z,1009.02
2019-03-25T10:30:52.368Z,1008.99
2019-03-25T10:31:52.373Z,1009.08
2019-03-25T10:32:52.377Z,1009.02
2019-03-25T10:33:52.386Z,1009.08
2019-03-25T10:34:52.363Z,1009.02
2019-03-25T10:35:52.388Z,1008.97
2019-03-25T10:36:52.446Z,1008.96
2019-03-25T10:37:52.460Z,1008.96
2019-03-25T10:38:52.430Z,1009.00
2019-03-25T10:39:52.419Z,1008.93
2019-03-25T10:40:52.429Z,1008.98
2019-03-25T10:41:52.427Z,1008.99
2019-03-25T10:42:52.416Z,1009.05
2019-03-25T10:43:52.434Z,1009.05
2019-03-25T10:44:52.429Z,1009.03
2019-03-25T10:45:52.446Z,1009.06
2019-03-25T10:46:52.541Z,1009.09
2019-03-25T10:47:52.471Z,1009.06
2019-03-25T10:48:52.505Z,1009.06
2019-03-25T10:49:52.476Z,1009.07
2019-03-25T10:50:52.455Z,1009.07
2019-03-25T10:51:52.467Z,1009.13
2019-03-25T10:52:52.479Z,1009.16
2019-03-25T10:53:52.530Z,1009.13
2019-03-25T10:54:52.592Z,1009.06
2019-03-25T10:55:52.506Z,1009.09
2019-03-25T10:56:52.496Z,1009.08
2019-03-25T10:57:52.550Z,1009.05
2019-03-25T10:58:58.035Z,1009.02
2019-03-25T10:59:52.560Z,1008.98
2019-03-25T11:00:52.530Z,1009.02
2019-03-25T11:01:52.554Z,1009.01
2019-03-25T11:02:52.580Z,1008.98
2019-03-25T11:03:52.548Z,1008.99
2019-03-25T11:04:52.715Z,1008.98
2019-03-25T11:05:52.566Z,1009.00
2019-03-25T11:06:52.677Z,1009.00
2019-03-25T11:07:52.567Z,1009.08
2019-03-25T11:08:52.576Z,1009.06
2019-03-25T11:09:52.581Z,1009.08
2019-03-25T11:10:52.724Z,1009.12
2019-03-25T11:11:52.590Z,1009.12
2019-03-25T11:12:52.624Z,1009.16
2019-03-25T11:13:52.635Z,1009.16
2019-03-25T11:14:52.680Z,1009.10
2019-03-25T11:15:52.626Z,1009.03
2019-03-25T11:16:52.633Z,1009.00
2019-03-25T11:17:52.642Z,1009.12
2019-03-25T11:18:52.663Z,1009.06
2019-03-25T11:19:52.661Z,1009.02
2019-03-25T11:20:52.704Z,1008.96
2019-03-25T11:21:52.713Z,1008.91
2019-03-25T11:22:52.691Z,1008.93
2019-03-25T11:23:52.686Z,1008.96
2019-03-25T11:24:52.712Z,1008.94
2019-03-25T11:25:52.731Z,1008.94
2019-03-25T11:26:52.690Z,1008.89
2019-03-25T11:27:54.542Z,1008.92
2019-03-25T11:28:52.710Z,1008.88
2019-03-25T11:29:52.754Z,1008.85
2019-03-25T11:30:52.787Z,1008.78
2019-03-25T11:31:52.751Z,1008.83
2019-03-25T11:32:52.763Z,1008.85
2019-03-25T11:33:52.745Z,1008.93
2019-03-25T11:34:52.758Z,1008.91
2019-03-25T11:35:52.775Z,1008.98
2019-03-25T11:36:52.810Z,1008.93
2019-03-25T11:37:52.778Z,1008.91
2019-03-25T11:38:52.803Z,1009.05
2019-03-25T11:39:52.808Z,1009.01
2019-03-25T11:40:52.811Z,1009.03
2019-03-25T11:41:52.852Z,1009.06
2019-03-25T11:42:52.827Z,1009.06
2019-03-25T11:43:52.847Z,1008.96
2019-03-25T11:44:52.850Z,1008.92
2019-03-25T11:45:52.867Z,1008.95
2019-03-25T11:46:52.867Z,1009.01
2019-03-25T11:47:52.874Z,1008.97
2019-03-25T11:48:52.856Z,1008.97
2019-03-25T11:49:52.981Z,1008.96
2019-03-25T11:50:52.875Z,1009.02
2019-03-25T11:51:52.905Z,1009.02
2019-03-25T11:52:52.898Z,1009.01
2019-03-25T11:53:52.887Z,1009.01
2019-03-25T11:54:52.921Z,1009.00
2019-03-25T11:55:52.944Z,1008.98
2019-03-25T11:56:52.990Z,1008.94
2019-03-25T11:57:53.141Z,1008.93
2019-03-25T11:58:52.901Z,1008.91
2019-03-25T11:59:52.931Z,1008.89
2019-03-25T12:00:52.916Z,1008.88
2019-03-25T12:01:52.937Z,1008.86
2019-03-25T12:02:52.945Z,1008.84
2019-03-25T12:03:53.159Z,1008.83
2019-03-25T12:04:52.965Z,1008.83
2019-03-25T12:05:52.983Z,1008.83